sensor_id;sensor_type;location;lat;lon;timestamp;temperature;humidity
66610;DHT22;53468;48.276;14.416;2023-05-10T00:04:10;10.90;99.90
66610;DHT22;53468;48.276;14.416;2023-05-10T00:09:27;10.90;99.90
66610;DHT22;53468;48.276;14.416;2023-05-10T00:14:54;10.80;99.90
66610;DHT22;53468;48.276;14.416;2023-05-10T00:20:27;10.70;99.90
66610;DHT22;53468;48.276;14.416;2023-05-10T00:25:41;10.60;99.90
66610;DHT22;53468;48.276;14.416;2023-05-10T00:31:27;10.50;99.90
66610;DHT22;53468;48.276;14.416;2023-05-10T00:36:59;10.50;99.90
66610;DHT22;53468;48.276;14.416;2023-05-10T00:47:36;10.30;99.90
66610;DHT22;53468;48.276;14.416;2023-05-10T00:58:48;10.20;99.90
66610;DHT22;53468;48.276;14.416;2023-05-10T01:04:20;10.10;99.90
66610;DHT22;53468;48.276;14.416;2023-05-10T01:09:59;10.10;99.90
66610;DHT22;53468;48.276;14.416;2023-05-10T01:15:40;9.90;99.90
66610;DHT22;53468;48.276;14.416;2023-05-10T01:21:22;9.90;99.90
66610;DHT22;53468;48.276;14.416;2023-05-10T01:32:43;9.80;99.90
66610;DHT22;53468;48.276;14.416;2023-05-10T01:38:09;9.70;99.90
66610;DHT22;53468;48.276;14.416;2023-05-10T01:43:42;9.70;99.90
66610;DHT22;53468;48.276;14.416;2023-05-10T01:49:16;9.60;99.90
66610;DHT22;53468;48.276;14.416;2023-05-10T01:54:26;9.60;99.90
66610;DHT22;53468;48.276;14.416;2023-05-10T01:59:35;9.60;99.90
66610;DHT22;53468;48.276;14.416;2023-05-10T02:04:46;9.60;99.90
66610;DHT22;53468;48.276;14.416;2023-05-10T02:10:23;9.60;99.90
66610;DHT22;53468;48.276;14.416;2023-05-10T02:15:30;9.60;99.90
66610;DHT22;53468;48.276;14.416;2023-05-10T02:20:51;9.60;99.90
66610;DHT22;53468;48.276;14.416;2023-05-10T02:26:06;9.50;99.90
66610;DHT22;53468;48.276;14.416;2023-05-10T02:31:10;9.30;99.90
66610;DHT22;53468;48.276;14.416;2023-05-10T02:36:25;9.40;99.90
66610;DHT22;53468;48.276;14.416;2023-05-10T02:41:37;9.20;99.90
66610;DHT22;53468;48.276;14.416;2023-05-10T02:46:56;9.30;99.90
66610;DHT22;53468;48.276;14.416;2023-05-10T02:52:42;9.20;99.90
66610;DHT22;53468;48.276;14.416;2023-05-10T02:57:59;9.10;99.90
66610;DHT22;53468;48.276;14.416;2023-05-10T03:03:08;9.20;99.90
66610;DHT22;53468;48.276;14.416;2023-05-10T03:08:23;9.10;99.90
66610;DHT22;53468;48.276;14.416;2023-05-10T03:13:31;9.10;99.90
66610;DHT22;53468;48.276;14.416;2023-05-10T03:18:46;9.10;99.90
66610;DHT22;53468;48.276;14.416;2023-05-10T03:24:21;9.00;99.90
66610;DHT22;53468;48.276;14.416;2023-05-10T03:29:29;9.00;99.90
66610;DHT22;53468;48.276;14.416;2023-05-10T03:34:35;9.10;99.90
66610;DHT22;53468;48.276;14.416;2023-05-10T03:39:52;9.00;99.90
66610;DHT22;53468;48.276;14.416;2023-05-10T03:44:57;9.00;99.90
66610;DHT22;53468;48.276;14.416;2023-05-10T03:50:05;9.00;99.90
66610;DHT22;53468;48.276;14.416;2023-05-10T03:55:16;9.10;99.90
66610;DHT22;53468;48.276;14.416;2023-05-10T04:00:22;9.20;99.90
66610;DHT22;53468;48.276;14.416;2023-05-10T04:05:29;9.40;99.90
66610;DHT22;53468;48.276;14.416;2023-05-10T04:11:05;9.60;99.90
66610;DHT22;53468;48.276;14.416;2023-05-10T04:16:16;9.80;99.90
66610;DHT22;53468;48.276;14.416;2023-05-10T04:21:46;10.10;99.90
66610;DHT22;53468;48.276;14.416;2023-05-10T04:27:02;10.30;99.90
66610;DHT22;53468;48.276;14.416;2023-05-10T04:32:11;10.50;99.90
66610;DHT22;53468;48.276;14.416;2023-05-10T04:37:22;10.60;99.90
66610;DHT22;53468;48.276;14.416;2023-05-10T04:42:36;10.70;99.90
66610;DHT22;53468;48.276;14.416;2023-05-10T04:48:10;10.80;99.90
66610;DHT22;53468;48.276;14.416;2023-05-10T04:53:57;11.00;99.90
66610;DHT22;53468;48.276;14.416;2023-05-10T04:59:20;11.10;99.90
66610;DHT22;53468;48.276;14.416;2023-05-10T05:05:02;11.20;99.90
66610;DHT22;53468;48.276;14.416;2023-05-10T05:10:50;11.30;99.90
66610;DHT22;53468;48.276;14.416;2023-05-10T05:16:29;11.50;99.90
66610;DHT22;53468;48.276;14.416;2023-05-10T05:22:06;11.50;99.90
66610;DHT22;53468;48.276;14.416;2023-05-10T05:27:41;11.60;99.90
66610;DHT22;53468;48.276;14.416;2023-05-10T05:33:10;11.70;99.90
66610;DHT22;53468;48.276;14.416;2023-05-10T05:38:36;11.70;99.90
66610;DHT22;53468;48.276;14.416;2023-05-10T05:43:53;11.80;99.90
66610;DHT22;53468;48.276;14.416;2023-05-10T05:49:31;11.80;99.90
66610;DHT22;53468;48.276;14.416;2023-05-10T05:54:37;11.90;99.90
66610;DHT22;53468;48.276;14.416;2023-05-10T06:00:07;12.00;99.90
66610;DHT22;53468;48.276;14.416;2023-05-10T06:05:26;12.10;99.90
66610;DHT22;53468;48.276;14.416;2023-05-10T06:10:40;12.20;99.90
66610;DHT22;53468;48.276;14.416;2023-05-10T06:15:49;12.30;99.90
66610;DHT22;53468;48.276;14.416;2023-05-10T06:21:42;12.40;99.90
66610;DHT22;53468;48.276;14.416;2023-05-10T06:27:25;12.50;99.90
66610;DHT22;53468;48.276;14.416;2023-05-10T06:32:46;12.60;99.90
66610;DHT22;53468;48.276;14.416;2023-05-10T07:01:21;12.90;99.90
66610;DHT22;53468;48.276;14.416;2023-05-10T07:06:34;12.80;99.90
66610;DHT22;53468;48.276;14.416;2023-05-10T07:42:07;12.80;99.90
66610;DHT22;53468;48.276;14.416;2023-05-10T07:48:10;12.90;99.90
66610;DHT22;53468;48.276;14.416;2023-05-10T07:54:14;13.10;99.90
66610;DHT22;53468;48.276;14.416;2023-05-10T08:00:06;13.10;99.90
66610;DHT22;53468;48.276;14.416;2023-05-10T08:05:58;13.00;99.90
66610;DHT22;53468;48.276;14.416;2023-05-10T08:11:08;13.10;99.90
66610;DHT22;53468;48.276;14.416;2023-05-10T08:16:14;13.30;99.90
66610;DHT22;53468;48.276;14.416;2023-05-10T08:21:17;13.50;99.90
66610;DHT22;53468;48.276;14.416;2023-05-10T08:26:21;13.60;99.90
66610;DHT22;53468;48.276;14.416;2023-05-10T08:31:46;13.60;99.90
66610;DHT22;53468;48.276;14.416;2023-05-10T08:37:06;13.60;99.90
66610;DHT22;53468;48.276;14.416;2023-05-10T08:42:30;13.50;99.90
66610;DHT22;53468;48.276;14.416;2023-05-10T09:05:30;13.80;99.90
66610;DHT22;53468;48.276;14.416;2023-05-10T09:11:07;13.80;99.90
66610;DHT22;53468;48.276;14.416;2023-05-10T09:16:47;13.80;99.90
66610;DHT22;53468;48.276;14.416;2023-05-10T09:22:16;13.90;99.90
66610;DHT22;53468;48.276;14.416;2023-05-10T09:27:39;14.00;99.90
66610;DHT22;53468;48.276;14.416;2023-05-10T09:33:44;14.20;99.90
66610;DHT22;53468;48.276;14.416;2023-05-10T09:39:31;14.40;99.90
66610;DHT22;53468;48.276;14.416;2023-05-10T09:45:35;14.50;99.90
66610;DHT22;53468;48.276;14.416;2023-05-10T09:51:28;14.70;99.90
66610;DHT22;53468;48.276;14.416;2023-05-10T09:57:22;14.90;99.90
66610;DHT22;53468;48.276;14.416;2023-05-10T10:02:29;15.20;99.90
66610;DHT22;53468;48.276;14.416;2023-05-10T10:07:38;15.30;99.90
66610;DHT22;53468;48.276;14.416;2023-05-10T10:13:15;15.40;99.90
66610;DHT22;53468;48.276;14.416;2023-05-10T10:18:20;15.50;99.90
66610;DHT22;53468;48.276;14.416;2023-05-10T10:23:27;15.50;99.90
66610;DHT22;53468;48.276;14.416;2023-05-10T10:28:49;15.30;99.90
66610;DHT22;53468;48.276;14.416;2023-05-10T10:34:01;15.50;99.90
66610;DHT22;53468;48.276;14.416;2023-05-10T10:39:21;15.80;99.90
66610;DHT22;53468;48.276;14.416;2023-05-10T10:44:45;15.80;99.90
66610;DHT22;53468;48.276;14.416;2023-05-10T10:49:50;16.10;99.90
66610;DHT22;53468;48.276;14.416;2023-05-10T10:55:04;16.30;99.90
66610;DHT22;53468;48.276;14.416;2023-05-10T11:17:58;16.20;99.90
66610;DHT22;53468;48.276;14.416;2023-05-10T11:24:12;16.10;99.90
66610;DHT22;53468;48.276;14.416;2023-05-10T11:30:12;16.10;99.90
66610;DHT22;53468;48.276;14.416;2023-05-10T11:35:53;16.20;99.90
66610;DHT22;53468;48.276;14.416;2023-05-10T11:41:13;16.10;99.90
66610;DHT22;53468;48.276;14.416;2023-05-10T11:46:19;16.30;99.90
66610;DHT22;53468;48.276;14.416;2023-05-10T11:51:25;16.40;99.90
66610;DHT22;53468;48.276;14.416;2023-05-10T11:56:32;16.40;99.90
66610;DHT22;53468;48.276;14.416;2023-05-10T12:01:45;16.50;99.90
66610;DHT22;53468;48.276;14.416;2023-05-10T12:06:59;16.40;99.90
66610;DHT22;53468;48.276;14.416;2023-05-10T12:12:03;16.40;99.90
66610;DHT22;53468;48.276;14.416;2023-05-10T12:17:11;16.40;99.90
66610;DHT22;53468;48.276;14.416;2023-05-10T12:22:21;16.60;99.90
66610;DHT22;53468;48.276;14.416;2023-05-10T12:27:47;16.80;99.90
66610;DHT22;53468;48.276;14.416;2023-05-10T12:32:50;16.70;99.90
66610;DHT22;53468;48.276;14.416;2023-05-10T12:38:24;16.60;99.90
66610;DHT22;53468;48.276;14.416;2023-05-10T12:43:27;16.40;99.90
66610;DHT22;53468;48.276;14.416;2023-05-10T12:48:39;16.30;99.90
66610;DHT22;53468;48.276;14.416;2023-05-10T13:05:59;16.20;99.90
66610;DHT22;53468;48.276;14.416;2023-05-10T13:11:41;16.30;99.90
66610;DHT22;53468;48.276;14.416;2023-05-10T13:17:44;16.20;99.90
66610;DHT22;53468;48.276;14.416;2023-05-10T13:35:00;16.80;99.90
66610;DHT22;53468;48.276;14.416;2023-05-10T13:40:07;16.90;99.90
66610;DHT22;53468;48.276;14.416;2023-05-10T13:45:31;16.80;99.90
66610;DHT22;53468;48.276;14.416;2023-05-10T13:50:41;16.90;99.90
66610;DHT22;53468;48.276;14.416;2023-05-10T13:55:47;16.80;99.90
66610;DHT22;53468;48.276;14.416;2023-05-10T14:00:52;16.80;99.90
66610;DHT22;53468;48.276;14.416;2023-05-10T14:06:15;16.80;99.90
66610;DHT22;53468;48.276;14.416;2023-05-10T14:11:19;16.80;99.90
66610;DHT22;53468;48.276;14.416;2023-05-10T14:16:22;16.70;99.90
66610;DHT22;53468;48.276;14.416;2023-05-10T14:21:28;16.70;99.90
66610;DHT22;53468;48.276;14.416;2023-05-10T14:26:41;16.50;99.90
66610;DHT22;53468;48.276;14.416;2023-05-10T14:31:47;16.40;99.90
66610;DHT22;53468;48.276;14.416;2023-05-10T14:37:15;16.50;99.90
66610;DHT22;53468;48.276;14.416;2023-05-10T14:42:21;16.70;99.90
66610;DHT22;53468;48.276;14.416;2023-05-10T14:47:32;16.80;99.90
66610;DHT22;53468;48.276;14.416;2023-05-10T14:52:38;16.80;99.90
66610;DHT22;53468;48.276;14.416;2023-05-10T14:57:40;16.90;99.90
66610;DHT22;53468;48.276;14.416;2023-05-10T15:02:56;16.80;99.90
66610;DHT22;53468;48.276;14.416;2023-05-10T15:08:04;16.80;99.90
66610;DHT22;53468;48.276;14.416;2023-05-10T15:13:33;16.70;99.90
66610;DHT22;53468;48.276;14.416;2023-05-10T15:19:17;16.60;99.90
66610;DHT22;53468;48.276;14.416;2023-05-10T15:43:12;15.90;99.90
66610;DHT22;53468;48.276;14.416;2023-05-10T15:48:25;15.90;99.90
66610;DHT22;53468;48.276;14.416;2023-05-10T15:53:58;15.80;99.90
66610;DHT22;53468;48.276;14.416;2023-05-10T15:59:09;15.80;99.90
66610;DHT22;53468;48.276;14.416;2023-05-10T16:04:31;15.70;99.90
66610;DHT22;53468;48.276;14.416;2023-05-10T16:09:38;15.70;99.90
66610;DHT22;53468;48.276;14.416;2023-05-10T16:15:04;15.70;99.90
66610;DHT22;53468;48.276;14.416;2023-05-10T16:20:21;15.60;99.90
66610;DHT22;53468;48.276;14.416;2023-05-10T16:25:28;15.60;99.90
66610;DHT22;53468;48.276;14.416;2023-05-10T16:31:07;15.60;99.90
66610;DHT22;53468;48.276;14.416;2023-05-10T16:36:56;15.50;99.90
66610;DHT22;53468;48.276;14.416;2023-05-10T16:42:32;15.40;99.90
66610;DHT22;53468;48.276;14.416;2023-05-10T16:48:46;15.40;99.90
66610;DHT22;53468;48.276;14.416;2023-05-10T17:24:03;15.30;99.90
66610;DHT22;53468;48.276;14.416;2023-05-10T17:29:30;15.30;99.90
66610;DHT22;53468;48.276;14.416;2023-05-10T17:35:00;15.20;99.90
66610;DHT22;53468;48.276;14.416;2023-05-10T17:41:05;15.20;99.90
66610;DHT22;53468;48.276;14.416;2023-05-10T17:46:41;15.20;99.90
66610;DHT22;53468;48.276;14.416;2023-05-10T17:52:25;15.20;99.90
66610;DHT22;53468;48.276;14.416;2023-05-10T18:16:27;14.90;99.90
66610;DHT22;53468;48.276;14.416;2023-05-10T18:22:15;14.90;99.90
66610;DHT22;53468;48.276;14.416;2023-05-10T18:27:56;14.80;99.90
66610;DHT22;53468;48.276;14.416;2023-05-10T18:39:55;14.70;99.90
66610;DHT22;53468;48.276;14.416;2023-05-10T18:45:39;14.70;99.90
66610;DHT22;53468;48.276;14.416;2023-05-10T18:51:31;14.70;99.90
66610;DHT22;53468;48.276;14.416;2023-05-10T18:57:16;14.70;99.90
66610;DHT22;53468;48.276;14.416;2023-05-10T19:02:58;14.70;99.90
66610;DHT22;53468;48.276;14.416;2023-05-10T19:26:24;14.50;99.90
66610;DHT22;53468;48.276;14.416;2023-05-10T19:38:09;14.40;99.90
66610;DHT22;53468;48.276;14.416;2023-05-10T20:44:42;13.90;99.90
66610;DHT22;53468;48.276;14.416;2023-05-10T20:57:26;13.70;99.90
66610;DHT22;53468;48.276;14.416;2023-05-10T21:45:39;13.40;99.90
66610;DHT22;53468;48.276;14.416;2023-05-10T21:57:33;13.40;99.90
66610;DHT22;53468;48.276;14.416;2023-05-10T22:21:54;13.30;99.90
66610;DHT22;53468;48.276;14.416;2023-05-10T22:27:44;13.20;99.90
66610;DHT22;53468;48.276;14.416;2023-05-10T22:33:34;13.30;99.90
66610;DHT22;53468;48.276;14.416;2023-05-10T22:39:31;13.20;99.90
66610;DHT22;53468;48.276;14.416;2023-05-10T22:44:52;13.20;99.90
66610;DHT22;53468;48.276;14.416;2023-05-10T22:50:23;13.10;99.90
66610;DHT22;53468;48.276;14.416;2023-05-10T22:55:49;13.10;99.90
66610;DHT22;53468;48.276;14.416;2023-05-10T23:01:19;13.10;99.90
66610;DHT22;53468;48.276;14.416;2023-05-10T23:06:38;13.10;99.90
66610;DHT22;53468;48.276;14.416;2023-05-10T23:12:22;13.00;99.90
66610;DHT22;53468;48.276;14.416;2023-05-10T23:18:12;13.00;99.90
66610;DHT22;53468;48.276;14.416;2023-05-10T23:23:30;13.00;99.90
66610;DHT22;53468;48.276;14.416;2023-05-10T23:29:09;12.90;99.90
66610;DHT22;53468;48.276;14.416;2023-05-10T23:34:27;13.00;99.90
66610;DHT22;53468;48.276;14.416;2023-05-10T23:40:19;13.00;99.90
66610;DHT22;53468;48.276;14.416;2023-05-10T23:51:38;13.00;99.90
66610;DHT22;53468;48.276;14.416;2023-05-10T23:56:57;13.00;99.90
